Thong Pha Phum, Thailand
Current Conditions -  °F | °C
As of 8:00 AM on Sunday 23 Nov 2014 (Local Time) from VTBD Reporting Station
Clear Clear  
Wind Chill: 79°   Ceiling: Unl
Heat Index: 82°   Visibility: 4mi
Dew Point: 72°   Wind: 5mph
Humidity: 78%   Direction: 360°N
Pressure: 29.88"   Gusts: NA
Location:  14.75°N, 98.63°E
Report Text: VTBD 230100Z 36004KT 280V050 6000 NSC 26/22 Q1012 NOSIG
Loading
Personal Weather Stations






























Interactive Weather Map New forecast layout! Learn more

10-Day Weather Forecast

Advertisements
Track Severe Weather on mobile